Time;durP1;ratioP1;P1;durP2;ratioP2;P2;SDS_P1;SDS_P2;PMS_P1;PMS_P2;Temp;Humidity;BMP_temperature;BMP_pressure;BME280_temperature;BME280_humidity;BME280_pressure;Samples;Min_cycle;Max_cycle;Signal;HPM_P1;HPM_P2
2022/12/12 00:02:15;;;;;;;;;;;;;;;0.39;70.34;99333.84;5324882;32;36294;-67
2022/12/12 00:05:17;;;;;;;;;;;;;;;-0.31;70.33;99327.03;5303129;32;35641;-66
2022/12/12 00:08:19;;;;;;;;;;;;;;;0.08;70.72;99327.38;5320341;32;35450;-79
2022/12/12 00:11:21;;;;;;;;;;;;;;;0.21;69.80;99334.94;5307922;32;45208;-66
2022/12/12 00:14:23;;;;;;;;;;;;;;;0.36;69.72;99344.19;5321845;32;35853;-76
2022/12/12 00:17:25;;;;;;;;;;;;;;;-0.40;71.57;99356.38;5313015;32;37662;-66
2022/12/12 00:20:27;;;;;;;;;;;;;;;0.05;70.02;99348.94;5305098;32;35319;-76
2022/12/12 00:23:29;;;;;;;;;;;;;;;-0.61;72.04;99361.75;5319881;32;36076;-78
2022/12/12 00:26:32;;;;;;;;;;;;;;;-0.36;70.71;99370.97;5308871;32;36034;-67
2022/12/12 00:29:34;;;;;;;;;;;;;;;-0.33;71.47;99365.75;5317867;32;36045;-67
2022/12/12 00:32:36;;;;;;;;;;;;;;;0.14;70.43;99363.47;5303863;32;34930;-77
2022/12/12 00:35:38;;;;;;;;;;;;;;;0.05;68.18;99361.84;5319465;32;36718;-67
2022/12/12 00:38:39;;;;;;;;;;;;;;;-0.03;69.82;99374.88;5312705;32;35705;-67
2022/12/12 00:41:41;;;;;;;;;;;;;;;0.10;69.25;99383.31;5300483;32;35211;-67
2022/12/12 00:44:43;;;;;;;;;;;;;;;0.24;69.26;99386.56;5313375;32;35201;-76
2022/12/12 00:47:45;;;;;;;;;;;;;;;-0.26;69.46;99389.78;5308151;32;36719;-66
2022/12/12 00:50:47;;;;;;;;;;;;;;;-0.61;71.57;99398.75;5321924;32;35224;-76
2022/12/12 00:53:49;;;;;;;;;;;;;;;-0.33;69.68;99394.16;5308541;32;35597;-66
2022/12/12 00:56:51;;;;;;;;;;;;;;;0.67;66.65;99393.75;5320778;32;47231;-75
2022/12/12 00:59:52;;;;;;;;;;;;;;;-0.06;68.51;99399.91;5314355;32;35277;-77
2022/12/12 01:02:55;;;;;;;;;;;;;;;-0.69;70.66;99395.41;5306932;32;35848;-77
2022/12/12 01:05:57;;;;;;;;;;;;;;;-0.63;70.36;99391.91;5321917;32;35810;-67
2022/12/12 01:08:59;;;;;;;;;;;;;;;-0.81;70.94;99395.50;5302248;32;35692;-77
2022/12/12 01:12:01;;;;;;;;;;;;;;;-1.05;71.81;99382.81;5323334;32;35999;-66
2022/12/12 01:15:04;;;;;;;;;;;;;;;-0.49;70.60;99381.44;5307818;32;35657;-77
2022/12/12 01:18:05;;;;;;;;;;;;;;;-0.18;69.08;99380.22;5318090;32;35891;-75
2022/12/12 01:21:08;;;;;;;;;;;;;;;-0.18;68.46;99376.78;5314129;32;35957;-66
2022/12/12 01:24:10;;;;;;;;;;;;;;;-0.19;68.29;99368.19;5307640;32;35627;-75
2022/12/12 01:27:12;;;;;;;;;;;;;;;-0.70;69.85;99373.03;5323560;32;35447;-66
2022/12/12 01:30:15;;;;;;;;;;;;;;;-0.20;68.36;99374.22;5308261;32;35537;-74
2022/12/12 01:33:17;;;;;;;;;;;;;;;-0.69;69.59;99379.06;5325416;32;35999;-66
2022/12/12 01:36:19;;;;;;;;;;;;;;;-0.71;69.63;99381.66;5300375;32;35633;-77
2022/12/12 01:39:21;;;;;;;;;;;;;;;-0.40;69.55;99374.44;5308604;32;44445;-76
2022/12/12 01:42:23;;;;;;;;;;;;;;;-0.58;69.60;99369.47;5299241;32;35644;-65
2022/12/12 01:45:44;;;;;;;;;;;;;;;-0.35;68.76;99374.41;5302556;32;36875;-75
2022/12/12 01:48:49;;;;;;;;;;;;;;;-0.52;68.98;99365.97;5324466;32;35725;-66
2022/12/12 01:51:52;;;;;;;;;;;;;;;-0.49;69.35;99358.22;5307046;32;44640;-76
2022/12/12 01:54:56;;;;;;;;;;;;;;;-0.94;70.59;99352.63;5324139;32;35942;-65
2022/12/12 01:57:57;;;;;;;;;;;;;;;-0.50;69.09;99364.25;5307122;32;35908;-76
2022/12/12 02:00:59;;;;;;;;;;;;;;;-0.43;69.12;99363.31;5307889;32;34760;-77
2022/12/12 02:04:02;;;;;;;;;;;;;;;-0.87;70.01;99362.88;5322306;32;35554;-66
2022/12/12 02:07:04;;;;;;;;;;;;;;;-0.58;70.39;99356.56;5303554;32;35359;-65
2022/12/12 02:10:06;;;;;;;;;;;;;;;-0.82;70.05;99370.56;5322162;32;34646;-76
2022/12/12 02:13:08;;;;;;;;;;;;;;;-0.97;71.64;99373.28;5307214;32;36004;-76
2022/12/12 02:16:16;;;;;;;;;;;;;;;-1.08;71.39;99369.97;5324300;32;35570;-76
2022/12/12 02:19:24;;;;;;;;;;;;;;;-1.02;72.40;99375.06;5312586;32;36059;-76
2022/12/12 02:22:32;;;;;;;;;;;;;;;-0.72;70.77;99371.34;5307539;32;44958;-66
2022/12/12 02:25:40;;;;;;;;;;;;;;;-1.31;71.91;99385.59;5322990;32;35672;-76
2022/12/12 02:29:00;;;;;;;;;;;;;;;-0.66;70.00;99384.19;5308895;32;35256;-65
2022/12/12 02:32:07;;;;;;;;;;;;;;;-1.19;71.52;99382.94;5322330;32;35943;-66
2022/12/12 02:35:09;;;;;;;;;;;;;;;-0.94;70.79;99378.44;5305808;32;35646;-76
2022/12/12 02:38:12;;;;;;;;;;;;;;;-1.39;70.83;99380.50;5308538;32;34332;-66
2022/12/12 02:41:32;;;;;;;;;;;;;;;-0.97;69.64;99378.44;5324844;32;35310;-66
2022/12/12 02:44:35;;;;;;;;;;;;;;;-0.63;68.62;99376.41;5299326;32;37482;-76
2022/12/12 02:47:38;;;;;;;;;;;;;;;0.22;65.55;99366.81;5317597;32;35418;-66
2022/12/12 02:50:41;;;;;;;;;;;;;;;-0.46;67.34;99369.34;5305852;32;35626;-76
2022/12/12 02:53:43;;;;;;;;;;;;;;;0.01;65.49;99373.12;5311188;32;35119;-76
2022/12/12 02:56:55;;;;;;;;;;;;;;;-0.89;67.77;99387.00;5320061;32;34680;-66
2022/12/12 02:59:59;;;;;;;;;;;;;;;-0.61;66.96;99393.59;5307290;32;44878;-67
2022/12/12 03:10:04;;;;;;;;;;;;;;;-0.35;65.49;99400.22;5304833;32;36676;-77
2022/12/12 03:13:06;;;;;;;;;;;;;;;-0.34;65.41;99397.59;5324315;32;35016;-75
2022/12/12 03:16:11;;;;;;;;;;;;;;;0.62;62.42;99392.94;5313480;32;36126;-77
2022/12/12 03:19:15;;;;;;;;;;;;;;;-0.15;63.07;99400.00;5323627;32;34890;-65
2022/12/12 03:22:25;;;;;;;;;;;;;;;0.17;63.52;99397.00;5304814;32;35532;-79
2022/12/12 03:25:29;;;;;;;;;;;;;;;0.39;62.49;99400.19;5310435;32;46228;-77
2022/12/12 03:28:39;;;;;;;;;;;;;;;0.53;61.21;99383.59;5316026;32;35102;-67
2022/12/12 03:31:41;;;;;;;;;;;;;;;0.59;58.94;99389.56;5303326;32;35497;-76
2022/12/12 03:34:49;;;;;;;;;;;;;;;-0.30;62.13;99401.03;5316355;32;36308;-76
2022/12/12 03:37:53;;;;;;;;;;;;;;;-0.32;62.07;99405.34;5306338;32;44721;-77
2022/12/12 03:40:55;;;;;;;;;;;;;;;-0.10;61.15;99398.22;5316834;32;36122;-65
2022/12/12 03:44:17;;;;;;;;;;;;;;;-0.02;60.38;99396.38;5286778;32;38321;-65
2022/12/12 03:47:21;;;;;;;;;;;;;;;-0.46;61.49;99408.06;5306769;32;35252;-66
2022/12/12 03:50:25;;;;;;;;;;;;;;;1.25;56.87;99404.91;5320095;32;44603;-76
2022/12/12 03:53:47;;;;;;;;;;;;;;;1.75;55.00;99411.75;5292833;32;35624;-65
2022/12/12 03:56:51;;;;;;;;;;;;;;;1.28;55.03;99423.81;5316564;32;33532;-76
2022/12/12 03:59:58;;;;;;;;;;;;;;;-0.52;60.04;99428.75;5307692;32;44769;-66
2022/12/12 04:03:26;;;;;;;;;;;;;;;0.79;56.25;99431.50;5305328;32;35007;-76
2022/12/12 04:06:31;;;;;;;;;;;;;;;-0.22;59.00;99437.09;5317281;32;45011;-78
2022/12/12 04:13:12;;;;;;;;;;;;;;;1.07;56.05;99447.44;5317613;32;44683;-65
2022/12/12 04:16:15;;;;;;;;;;;;;;;1.30;54.38;99445.37;5314324;32;36425;-75
2022/12/12 04:23:14;;;;;;;;;;;;;;;1.69;53.82;99462.84;5304515;32;36266;-66
2022/12/12 04:29:48;;;;;;;;;;;;;;;1.05;55.09;99473.38;5306198;32;35903;-78
2022/12/12 04:32:52;;;;;;;;;;;;;;;0.71;55.03;99480.75;5321592;32;45032;-66
2022/12/12 04:35:54;;;;;;;;;;;;;;;0.43;56.12;99490.59;5303956;32;44631;-66
2022/12/12 04:38:55;;;;;;;;;;;;;;;-0.02;57.39;99487.66;5320649;32;35929;-66
2022/12/12 04:41:57;;;;;;;;;;;;;;;-0.30;58.66;99481.06;5280149;32;36444;-77
2022/12/12 04:45:04;;;;;;;;;;;;;;;0.25;56.21;99490.81;5296794;32;35305;-75
2022/12/12 04:48:07;;;;;;;;;;;;;;;0.44;55.88;99492.28;5318650;32;35451;-77
2022/12/12 04:51:09;;;;;;;;;;;;;;;0.62;54.78;99485.19;5300779;32;36837;-66
2022/12/12 04:54:10;;;;;;;;;;;;;;;0.44;55.85;99496.59;5319873;32;35614;-76
2022/12/12 04:57:15;;;;;;;;;;;;;;;0.95;53.57;99496.81;5308593;32;35172;-65
2022/12/12 05:00:16;;;;;;;;;;;;;;;0.07;54.91;99496.19;5321688;32;35522;-77
2022/12/12 05:03:20;;;;;;;;;;;;;;;0.04;53.68;99497.06;5306724;32;35819;-77
2022/12/12 05:06:27;;;;;;;;;;;;;;;-0.36;55.78;99500.06;5304969;32;44980;-66
2022/12/12 05:09:28;;;;;;;;;;;;;;;0.33;54.36;99493.31;5319835;32;35613;-77
2022/12/12 05:12:34;;;;;;;;;;;;;;;-0.47;54.93;99486.38;5307118;32;34785;-66
2022/12/12 05:15:36;;;;;;;;;;;;;;;-0.88;56.69;99497.03;5323535;32;35144;-78
2022/12/12 05:18:45;;;;;;;;;;;;;;;-0.56;55.22;99489.91;5307187;32;36858;-66
2022/12/12 05:21:48;;;;;;;;;;;;;;;-0.27;54.49;99499.09;5320105;32;35516;-76
2022/12/12 05:24:49;;;;;;;;;;;;;;;-0.68;55.12;99504.63;5311420;32;36085;-66
2022/12/12 05:27:51;;;;;;;;;;;;;;;-0.36;54.39;99502.62;5308251;32;44691;-76
2022/12/12 05:30:53;;;;;;;;;;;;;;;-0.32;54.61;99504.34;5325176;32;35410;-67
2022/12/12 05:33:55;;;;;;;;;;;;;;;-0.49;55.22;99511.34;5306517;32;36188;-76
2022/12/12 05:36:57;;;;;;;;;;;;;;;-0.87;56.32;99521.97;5322911;32;35157;-75
2022/12/12 05:39:59;;;;;;;;;;;;;;;-0.85;56.58;99510.75;5308919;32;35737;-75
2022/12/12 05:43:01;;;;;;;;;;;;;;;-0.62;56.29;99514.91;5300653;32;35585;-74
2022/12/12 05:46:03;;;;;;;;;;;;;;;-0.65;56.55;99504.59;5310220;32;36224;-77
2022/12/12 05:49:05;;;;;;;;;;;;;;;-0.48;55.39;99518.22;5308253;32;34865;-67
2022/12/12 05:52:07;;;;;;;;;;;;;;;-0.65;56.59;99525.25;5324744;32;36787;-67
2022/12/12 05:55:09;;;;;;;;;;;;;;;-0.75;57.21;99518.44;5308449;32;36592;-76
2022/12/12 05:58:11;;;;;;;;;;;;;;;-0.77;56.84;99521.06;5324455;32;35262;-77
2022/12/12 06:01:13;;;;;;;;;;;;;;;-0.68;56.76;99528.72;5307178;32;36005;-66
2022/12/12 06:04:15;;;;;;;;;;;;;;;-0.77;58.22;99528.78;5641889;27;37796;-96
2022/12/12 06:07:19;;;;;;;;;;;;;;;-1.29;58.83;99534.22;5382430;32;36102;-96
2022/12/12 06:10:26;;;;;;;;;;;;;;;-1.04;57.90;99541.84;5371339;32;34800;-95
2022/12/12 06:13:33;;;;;;;;;;;;;;;-1.25;57.63;99541.09;5370641;32;36147;-94
2022/12/12 06:16:36;;;;;;;;;;;;;;;-1.18;57.64;99542.78;5360842;32;36224;-96
2022/12/12 06:19:42;;;;;;;;;;;;;;;-0.90;56.68;99545.19;5340640;32;33809;-96
2022/12/12 06:22:44;;;;;;;;;;;;;;;-1.17;57.70;99551.37;5369321;32;33391;-96
2022/12/12 06:25:56;;;;;;;;;;;;;;;-1.22;57.02;99563.44;5347691;32;43357;-95
2022/12/12 06:29:02;;;;;;;;;;;;;;;-0.72;56.29;99564.84;5347633;32;35167;-96
2022/12/12 06:32:05;;;;;;;;;;;;;;;-0.97;56.51;99559.00;5366135;32;35462;-95
2022/12/12 06:35:09;;;;;;;;;;;;;;;-0.72;55.90;99552.81;5334928;32;35543;-95
2022/12/12 06:38:14;;;;;;;;;;;;;;;-0.66;55.93;99555.34;5346221;32;34737;-96
2022/12/12 06:41:18;;;;;;;;;;;;;;;-0.89;56.47;99567.56;5336260;32;42791;-96
2022/12/12 06:44:27;;;;;;;;;;;;;;;-0.50;56.04;99568.16;5366324;32;35774;-96
2022/12/12 06:47:39;;;;;;;;;;;;;;;-0.61;56.09;99568.22;5383400;32;35900;-96
2022/12/12 06:51:28;;;;;;;;;;;;;;;-0.33;55.20;99584.38;5372299;32;43576;-96
2022/12/12 06:54:39;;;;;;;;;;;;;;;-1.02;57.31;99591.72;5277594;27;36560;-67
2022/12/12 06:57:41;;;;;;;;;;;;;;;-0.61;56.67;99600.06;5265131;33;35648;-80
2022/12/12 07:00:43;;;;;;;;;;;;;;;0.02;54.88;99596.16;5262868;33;35261;-67
2022/12/12 07:03:45;;;;;;;;;;;;;;;-0.68;55.85;99598.38;5268088;33;34540;-68
2022/12/12 07:06:47;;;;;;;;;;;;;;;-0.30;55.87;99599.84;5267597;33;36139;-84
2022/12/12 07:09:49;;;;;;;;;;;;;;;-0.12;54.72;99602.28;5281195;33;34364;-83
2022/12/12 07:12:51;;;;;;;;;;;;;;;-0.49;56.16;99608.59;5266458;33;35010;-82
2022/12/12 07:15:58;;;;;;;;;;;;;;;-0.17;55.51;99604.06;5274209;33;34793;-68
2022/12/12 07:19:00;;;;;;;;;;;;;;;-0.20;55.29;99585.97;5276208;33;36080;-76
2022/12/12 07:22:02;;;;;;;;;;;;;;;-0.18;54.59;99596.31;5267356;33;34848;-78
2022/12/12 07:25:10;;;;;;;;;;;;;;;0.02;54.34;99609.91;5281914;33;34815;-71
2022/12/12 07:28:14;;;;;;;;;;;;;;;-0.69;56.28;99611.31;5270025;33;34816;-68
2022/12/12 07:31:17;;;;;;;;;;;;;;;0.07;54.30;99615.06;5276549;32;45069;-74
2022/12/12 07:34:19;;;;;;;;;;;;;;;0.18;53.67;99610.63;5282319;32;34714;-74
2022/12/12 07:37:21;;;;;;;;;;;;;;;0.51;52.56;99627.53;5273053;33;35928;-77
2022/12/12 07:40:23;;;;;;;;;;;;;;;0.25;53.57;99617.44;5267060;33;36996;-75
2022/12/12 07:43:25;;;;;;;;;;;;;;;0.36;53.64;99622.53;5271606;33;35328;-74
2022/12/12 07:46:27;;;;;;;;;;;;;;;0.49;52.93;99619.78;5284759;33;34967;-87
2022/12/12 07:49:29;;;;;;;;;;;;;;;0.11;53.63;99621.88;5277574;33;35086;-76
2022/12/12 07:52:31;;;;;;;;;;;;;;;-0.09;54.74;99630.66;5286896;33;35943;-71
2022/12/12 07:55:33;;;;;;;;;;;;;;;-0.37;54.76;99629.16;5283428;32;36316;-75
2022/12/12 07:58:36;;;;;;;;;;;;;;;0.21;53.81;99633.88;5279733;32;34741;-71
2022/12/12 08:01:38;;;;;;;;;;;;;;;-0.19;53.74;99641.06;5279085;33;36028;-78
2022/12/12 08:04:40;;;;;;;;;;;;;;;-0.10;53.81;99628.09;5263401;33;34692;-76
2022/12/12 08:07:42;;;;;;;;;;;;;;;-0.27;54.27;99634.25;5278999;33;34777;-66
2022/12/12 08:10:44;;;;;;;;;;;;;;;0.09;53.41;99637.41;5282124;32;35773;-70
2022/12/12 08:13:46;;;;;;;;;;;;;;;-0.27;53.77;99654.03;5283215;33;45060;-78
2022/12/12 08:16:48;;;;;;;;;;;;;;;-0.65;55.27;99662.03;5265748;33;34944;-69
2022/12/12 08:19:50;;;;;;;;;;;;;;;0.45;52.82;99661.19;5286387;32;33287;-76
2022/12/12 08:22:52;;;;;;;;;;;;;;;0.11;52.54;99665.81;5288590;32;35327;-75
2022/12/12 08:25:54;;;;;;;;;;;;;;;-0.03;52.87;99671.94;5274719;33;34672;-75
2022/12/12 08:28:56;;;;;;;;;;;;;;;0.50;52.26;99660.28;5295449;32;34763;-72
2022/12/12 08:31:58;;;;;;;;;;;;;;;0.74;51.11;99668.66;5277597;33;34852;-68
2022/12/12 08:35:00;;;;;;;;;;;;;;;-0.06;52.20;99669.41;5297340;32;34890;-74
2022/12/12 08:38:02;;;;;;;;;;;;;;;-0.15;53.02;99666.03;5265732;33;36292;-75
2022/12/12 08:41:04;;;;;;;;;;;;;;;-0.13;53.04;99672.91;5263548;33;35227;-71
2022/12/12 08:44:06;;;;;;;;;;;;;;;0.31;52.01;99663.91;5294503;32;35531;-71
2022/12/12 08:47:09;;;;;;;;;;;;;;;0.52;50.13;99662.88;5272599;33;34752;-69
2022/12/12 08:50:11;;;;;;;;;;;;;;;0.02;52.13;99666.75;5288197;32;35128;-72
2022/12/12 08:53:13;;;;;;;;;;;;;;;0.63;50.32;99657.56;5283928;32;34667;-68
2022/12/12 08:56:16;;;;;;;;;;;;;;;0.68;49.79;99663.56;5287956;32;43181;-72
2022/12/12 08:59:18;;;;;;;;;;;;;;;0.30;49.96;99669.97;5280061;33;34788;-72
2022/12/12 09:02:20;;;;;;;;;;;;;;;0.42;49.56;99664.69;5275651;32;35837;-71
2022/12/12 09:05:22;;;;;;;;;;;;;;;1.05;48.41;99664.88;5298551;32;36928;-77
2022/12/12 09:08:24;;;;;;;;;;;;;;;0.64;48.56;99669.62;5272771;33;34743;-79
2022/12/12 09:11:27;;;;;;;;;;;;;;;0.10;50.06;99671.84;5282694;32;36068;-78
2022/12/12 09:14:29;;;;;;;;;;;;;;;0.17;50.07;99660.59;5276577;32;36952;-80
2022/12/12 09:17:31;;;;;;;;;;;;;;;0.21;49.46;99681.25;5282611;33;34736;-74
2022/12/12 09:20:33;;;;;;;;;;;;;;;0.16;50.44;99671.81;5272819;33;36435;-71
2022/12/12 09:23:35;;;;;;;;;;;;;;;0.34;49.52;99676.81;5280823;32;34827;-78
2022/12/12 09:26:37;;;;;;;;;;;;;;;0.10;50.50;99680.47;5273775;32;35122;-69
2022/12/12 09:29:39;;;;;;;;;;;;;;;-0.14;51.10;99686.66;5281909;32;36067;-73
2022/12/12 09:32:43;;;;;;;;;;;;;;;-0.08;50.69;99686.63;5284775;33;34931;-73
2022/12/12 09:35:45;;;;;;;;;;;;;;;-0.32;50.91;99694.56;5265760;33;44531;-87
2022/12/12 09:38:47;;;;;;;;;;;;;;;-0.19;50.38;99691.03;5283459;32;35200;-83
2022/12/12 09:41:50;;;;;;;;;;;;;;;0.20;50.15;99689.03;5282176;32;36373;-84
2022/12/12 09:44:53;;;;;;;;;;;;;;;0.22;49.54;99682.09;5287282;32;34735;-75
2022/12/12 09:47:56;;;;;;;;;;;;;;;0.88;48.82;99684.03;5289871;32;34815;-90
2022/12/12 09:50:58;;;;;;;;;;;;;;;0.78;48.03;99684.16;5274766;33;34845;-81
2022/12/12 09:54:00;;;;;;;;;;;;;;;-0.24;50.49;99681.59;5284341;33;34817;-77
2022/12/12 09:57:04;;;;;;;;;;;;;;;0.08;49.58;99677.03;5272408;32;34950;-87
2022/12/12 10:00:10;;;;;;;;;;;;;;;0.41;49.02;99675.91;5280501;33;36092;-71
2022/12/12 10:03:13;;;;;;;;;;;;;;;0.40;49.17;99678.50;5283280;32;38327;-70
2022/12/12 10:06:15;;;;;;;;;;;;;;;0.01;49.78;99693.47;5269616;32;43254;-75
2022/12/12 10:09:51;;;;;;;;;;;;;;;0.33;49.60;99690.63;5284119;33;35145;-75
2022/12/12 10:12:53;;;;;;;;;;;;;;;0.61;48.74;99690.38;5276671;33;44398;-81
2022/12/12 10:15:57;;;;;;;;;;;;;;;0.36;49.41;99689.72;5296758;32;35249;-80
2022/12/12 10:19:02;;;;;;;;;;;;;;;1.02;48.71;99690.75;5280178;32;35141;-72
2022/12/12 10:22:11;;;;;;;;;;;;;;;1.63;47.30;99686.56;5284939;32;34834;-72
2022/12/12 10:25:19;;;;;;;;;;;;;;;0.87;48.63;99688.34;5277139;33;42948;-82
2022/12/12 10:28:25;;;;;;;;;;;;;;;1.15;48.42;99694.06;5284671;32;34815;-79
2022/12/12 10:31:27;;;;;;;;;;;;;;;2.10;46.73;99688.44;5300473;32;34799;-73
2022/12/12 10:34:29;;;;;;;;;;;;;;;0.92;48.79;99691.75;5275920;33;34661;-73
2022/12/12 10:37:47;;;;;;;;;;;;;;;1.42;47.63;99708.44;5279025;33;35136;-69
2022/12/12 10:40:50;;;;;;;;;;;;;;;1.58;47.56;99706.47;5280152;32;44241;-76
2022/12/12 10:43:53;;;;;;;;;;;;;;;2.22;46.83;99707.28;5271414;32;36877;-85
2022/12/12 10:46:59;;;;;;;;;;;;;;;1.88;47.50;99713.84;5288184;33;35569;-81
2022/12/12 10:50:15;;;;;;;;;;;;;;;1.83;47.29;99707.84;5286547;33;36173;-71
2022/12/12 10:53:18;;;;;;;;;;;;;;;1.54;47.56;99699.62;5286782;33;44427;-67
2022/12/12 10:56:24;;;;;;;;;;;;;;;2.49;45.82;99701.63;5280717;33;33863;-71
2022/12/12 10:59:27;;;;;;;;;;;;;;;2.12;46.75;99691.84;5283390;32;34784;-76
2022/12/12 11:02:43;;;;;;;;;;;;;;;1.28;49.04;99694.78;5286711;32;34733;-79
2022/12/12 11:05:45;;;;;;;;;;;;;;;2.32;46.03;99691.56;5280913;32;46213;-70
2022/12/12 11:08:57;;;;;;;;;;;;;;;2.69;45.45;99681.37;5291846;32;36139;-77
2022/12/12 11:12:08;;;;;;;;;;;;;;;1.87;46.51;99690.53;5280800;32;35104;-79
2022/12/12 11:15:16;;;;;;;;;;;;;;;1.73;48.69;99697.63;5270719;33;36341;-73
2022/12/12 11:18:20;;;;;;;;;;;;;;;1.62;48.61;99696.06;5292680;32;44584;-71
2022/12/12 11:21:23;;;;;;;;;;;;;;;1.16;50.93;99713.03;5270182;33;34691;-72
2022/12/12 11:24:26;;;;;;;;;;;;;;;1.84;48.66;99711.28;5295502;32;35140;-72
2022/12/12 11:27:32;;;;;;;;;;;;;;;1.11;50.11;99714.84;5283741;32;35890;-79
2022/12/12 11:30:35;;;;;;;;;;;;;;;1.36;50.20;99724.03;5277755;33;34598;-78
2022/12/12 11:33:41;;;;;;;;;;;;;;;1.78;50.02;99721.75;5288490;32;36360;-83
2022/12/12 11:36:43;;;;;;;;;;;;;;;0.90;50.19;99721.97;5283846;32;36179;-74
2022/12/12 11:39:47;;;;;;;;;;;;;;;0.93;50.13;99723.66;5264830;33;44739;-74
2022/12/12 11:42:49;;;;;;;;;;;;;;;0.91;49.37;99722.84;5270787;33;36523;-75
2022/12/12 11:45:59;;;;;;;;;;;;;;;0.67;49.92;99729.09;5293412;32;36037;-74
2022/12/12 11:49:02;;;;;;;;;;;;;;;0.71;50.28;99735.94;5282409;32;36414;-73
2022/12/12 11:52:15;;;;;;;;;;;;;;;0.93;49.48;99727.09;5274488;33;34826;-72
2022/12/12 11:55:20;;;;;;;;;;;;;;;0.92;50.08;99722.81;5291553;32;44197;-74
2022/12/12 11:58:21;;;;;;;;;;;;;;;1.21;48.69;99729.38;5280069;32;35185;-78
2022/12/12 12:01:27;;;;;;;;;;;;;;;0.13;50.09;99744.19;5295191;32;36235;-79
2022/12/12 12:04:48;;;;;;;;;;;;;;;1.08;49.35;99728.66;5273128;32;34989;-78
2022/12/12 12:07:57;;;;;;;;;;;;;;;2.43;46.19;99728.50;5281414;32;44532;-78
2022/12/12 12:11:03;;;;;;;;;;;;;;;3.14;43.94;99717.72;5285240;32;36164;-77
2022/12/12 12:14:23;;;;;;;;;;;;;;;3.21;44.14;99716.72;5273332;33;34699;-75
2022/12/12 12:17:31;;;;;;;;;;;;;;;4.50;41.98;99722.50;5283084;32;34910;-75
2022/12/12 12:20:49;;;;;;;;;;;;;;;5.46;40.08;99711.22;5274872;33;36778;-74
2022/12/12 12:23:51;;;;;;;;;;;;;;;3.12;44.37;99719.50;5283002;32;44478;-72
2022/12/12 12:27:09;;;;;;;;;;;;;;;2.63;46.65;99717.78;5299228;32;34707;-75
2022/12/12 12:30:17;;;;;;;;;;;;;;;2.58;47.60;99718.78;5273391;32;34679;-71
2022/12/12 12:33:38;;;;;;;;;;;;;;;2.06;49.44;99725.66;5282692;33;43993;-69
2022/12/12 12:36:55;;;;;;;;;;;;;;;2.29;50.64;99724.44;5274080;32;34737;-70
2022/12/12 12:40:01;;;;;;;;;;;;;;;2.52;50.07;99722.34;5252660;33;35120;-70
2022/12/12 12:43:21;;;;;;;;;;;;;;;3.15;48.80;99710.78;5298792;32;34912;-71
2022/12/12 12:46:39;;;;;;;;;;;;;;;1.76;51.98;99720.91;5272001;32;44375;-70
2022/12/12 12:49:53;;;;;;;;;;;;;;;1.90;52.83;99722.44;5297735;32;36550;-71
2022/12/12 12:53:14;;;;;;;;;;;;;;;1.74;53.66;99733.03;5289748;32;35881;-71
2022/12/12 12:56:19;;;;;;;;;;;;;;;2.30;51.34;99726.16;5277995;33;44564;-72
2022/12/12 12:59:29;;;;;;;;;;;;;;;2.31;51.37;99727.84;5299826;32;34778;-68
2022/12/12 13:02:38;;;;;;;;;;;;;;;1.57;51.29;99736.72;5279681;32;36455;-73
2022/12/12 13:05:44;;;;;;;;;;;;;;;1.19;52.00;99742.34;5296500;32;35296;-73
2022/12/12 13:08:53;;;;;;;;;;;;;;;2.30;48.56;99736.53;5273472;33;44512;-70
2022/12/12 13:11:58;;;;;;;;;;;;;;;1.04;50.80;99750.28;5286310;32;36155;-73
2022/12/12 13:15:02;;;;;;;;;;;;;;;1.14;51.64;99751.03;5299145;32;34623;-70
2022/12/12 13:18:10;;;;;;;;;;;;;;;0.46;54.11;99754.28;5276887;33;34771;-70
2022/12/12 13:21:12;;;;;;;;;;;;;;;0.19;54.48;99754.47;5299862;32;33534;-71
2022/12/12 13:24:22;;;;;;;;;;;;;;;0.42;54.89;99755.16;5266859;33;45538;-71
2022/12/12 13:27:35;;;;;;;;;;;;;;;0.42;56.50;99749.13;5285556;32;36132;-85
2022/12/12 13:30:42;;;;;;;;;;;;;;;0.98;55.17;99752.94;5295794;32;34742;-79
2022/12/12 13:33:46;;;;;;;;;;;;;;;0.48;56.52;99754.25;5289529;32;44736;-80
2022/12/12 13:36:48;;;;;;;;;;;;;;;0.11;58.09;99756.25;5280217;33;33899;-77
2022/12/12 13:40:00;;;;;;;;;;;;;;;1.15;55.40;99755.34;5261697;32;34873;-77
2022/12/12 13:43:03;;;;;;;;;;;;;;;0.94;56.11;99757.28;5288547;32;36101;-73
2022/12/12 13:46:26;;;;;;;;;;;;;;;0.71;56.27;99762.69;5292959;32;36015;-76
2022/12/12 13:49:47;;;;;;;;;;;;;;;0.10;57.81;99764.87;5276828;33;35050;-69
2022/12/12 13:53:04;;;;;;;;;;;;;;;0.07;57.34;99773.53;5289179;33;44427;-69
2022/12/12 13:56:25;;;;;;;;;;;;;;;0.79;56.25;99760.88;5279542;33;34141;-71
2022/12/12 13:59:27;;;;;;;;;;;;;;;1.55;53.71;99763.50;5273123;33;35251;-68
2022/12/12 14:02:30;;;;;;;;;;;;;;;1.22;54.63;99769.91;5296065;32;36384;-71
2022/12/12 14:05:40;;;;;;;;;;;;;;;0.95;54.37;99766.75;5285262;32;35943;-71
2022/12/12 14:08:46;;;;;;;;;;;;;;;1.25;54.22;99767.31;5293215;32;34810;-70
2022/12/12 14:11:48;;;;;;;;;;;;;;;0.94;54.32;99769.34;5276625;33;45350;-72
2022/12/12 14:14:50;;;;;;;;;;;;;;;1.42;53.70;99770.56;5280525;32;35788;-71
2022/12/12 14:17:59;;;;;;;;;;;;;;;1.13;54.08;99775.22;5286931;33;35703;-73
2022/12/12 14:21:03;;;;;;;;;;;;;;;0.63;55.54;99769.62;5289395;32;35402;-71
2022/12/12 14:24:24;;;;;;;;;;;;;;;1.12;54.52;99774.34;5300379;32;34781;-75
2022/12/12 14:27:44;;;;;;;;;;;;;;;0.98;53.43;99768.47;5280853;33;34984;-72
2022/12/12 14:31:04;;;;;;;;;;;;;;;0.72;53.66;99760.97;5283952;33;44452;-84
2022/12/12 14:34:26;;;;;;;;;;;;;;;0.74;54.06;99772.13;5300030;32;33122;-84
2022/12/12 14:37:34;;;;;;;;;;;;;;;0.29;55.46;99781.97;5279442;33;34978;-77
2022/12/12 14:40:37;;;;;;;;;;;;;;;0.34;55.17;99774.19;5270436;33;36289;-75
2022/12/12 14:43:45;;;;;;;;;;;;;;;0.71;54.38;99764.37;5278081;33;36538;-72
2022/12/12 14:47:07;;;;;;;;;;;;;;;0.80;54.76;99778.13;5279013;32;36724;-71
2022/12/12 14:50:10;;;;;;;;;;;;;;;0.72;54.79;99776.47;5290055;33;35194;-73
2022/12/12 14:53:16;;;;;;;;;;;;;;;0.52;55.55;99784.41;5287247;32;35026;-78
2022/12/12 14:56:19;;;;;;;;;;;;;;;0.63;55.63;99797.22;5299991;32;43962;-70
2022/12/12 14:59:22;;;;;;;;;;;;;;;0.58;56.12;99792.12;5275354;33;34894;-70
2022/12/12 15:02:34;;;;;;;;;;;;;;;0.52;56.25;99798.19;5293313;32;34838;-70
2022/12/12 15:05:36;;;;;;;;;;;;;;;0.25;57.86;99790.63;5292333;32;36123;-73
2022/12/12 15:08:38;;;;;;;;;;;;;;;0.95;56.45;99809.87;5280921;32;36799;-78
2022/12/12 15:11:40;;;;;;;;;;;;;;;1.30;55.50;99805.22;5291767;33;35623;-70
2022/12/12 15:14:48;;;;;;;;;;;;;;;1.23;55.23;99810.50;5278911;33;34087;-70
2022/12/12 15:17:50;;;;;;;;;;;;;;;1.35;54.59;99810.34;5290972;32;44499;-78
2022/12/12 15:20:55;;;;;;;;;;;;;;;1.62;52.91;99823.00;5286810;32;36410;-69
2022/12/12 15:23:57;;;;;;;;;;;;;;;1.54;53.93;99822.19;5287276;32;34824;-70
2022/12/12 15:26:59;;;;;;;;;;;;;;;2.14;52.35;99821.47;5288698;33;34984;-69
2022/12/12 15:30:03;;;;;;;;;;;;;;;0.95;55.67;99830.59;5287466;32;35425;-78
2022/12/12 15:33:06;;;;;;;;;;;;;;;1.62;54.52;99835.09;5294419;33;35455;-71
2022/12/12 15:36:35;;;;;;;;;;;;;;;1.80;54.70;99839.16;5268034;32;34862;-79
2022/12/12 15:39:37;;;;;;;;;;;;;;;1.88;53.12;99845.12;5252402;33;33781;-79
2022/12/12 15:42:50;;;;;;;;;;;;;;;2.66;51.60;99834.53;5282019;33;36066;-78
2022/12/12 15:45:56;;;;;;;;;;;;;;;2.73;51.01;99840.47;5271106;33;44911;-79
2022/12/12 15:48:58;;;;;;;;;;;;;;;1.05;54.27;99848.63;5289753;33;36139;-69
2022/12/12 15:52:07;;;;;;;;;;;;;;;1.75;53.54;99861.72;5278308;33;34756;-79
2022/12/12 15:55:16;;;;;;;;;;;;;;;1.71;53.94;99849.66;5300218;32;36092;-69
2022/12/12 15:58:22;;;;;;;;;;;;;;;1.67;54.37;99848.81;5287799;32;44624;-69
2022/12/12 16:01:30;;;;;;;;;;;;;;;1.66;55.23;99851.44;5276233;33;36147;-78
2022/12/12 16:04:32;;;;;;;;;;;;;;;0.78;57.07;99848.84;5302288;32;38169;-68
2022/12/12 16:07:37;;;;;;;;;;;;;;;0.61;57.95;99850.69;5271580;33;36254;-79
2022/12/12 16:10:47;;;;;;;;;;;;;;;1.27;55.81;99849.25;5297338;32;36538;-68
2022/12/12 16:13:49;;;;;;;;;;;;;;;1.00;56.83;99865.03;5281945;32;44586;-78
2022/12/12 16:17:12;;;;;;;;;;;;;;;1.06;57.34;99852.91;5288193;32;34646;-79
2022/12/12 16:20:14;;;;;;;;;;;;;;;1.08;56.96;99852.88;5287854;33;35578;-80
2022/12/12 16:23:19;;;;;;;;;;;;;;;0.21;57.44;99841.47;5287354;32;45477;-68
2022/12/12 16:26:21;;;;;;;;;;;;;;;1.20;56.79;99851.94;5281791;32;34866;-78
2022/12/12 16:29:23;;;;;;;;;;;;;;;0.84;56.79;99863.44;5287609;32;34543;-70
2022/12/12 16:32:25;;;;;;;;;;;;;;;0.95;56.44;99849.56;5289078;33;34682;-68